NWWM

Nouméa Magenta Airport

Nouméa, New Caledonia
TAF NWWM 191700Z 1918/2018 09010KT 9999 SCT035 BECMG 1922/2001 14020KT BECMG 2007/2010 10010KT
Issued Valid From Valid To
Jan-19 @ 17:00 UTC
(18 hours ago)
Jan-19 @ 18:00 UTC
(17 hours ago)
Jan-20 @ 18:00 UTC
(in 7 hours)
Expired Click to View Jan-19 @ 18:00 to Jan-19 @ 22:00
TAF NWWM 191700Z 1918/2018 09010KT 9999 SCT035
Wind Visibility Clouds
90° at 10 knots 10,000+ meters
  • Scattered at 3,500' AGL
Expired Click to View Jan-19 @ 22:00 to Jan-20 @ 07:00
BECMG 1922/2001 14020KT
Wind Visibility Clouds
140° at 20 knots 10,000+ meters
  • Scattered at 3,500' AGL
Becoming Jan-20 @ 07:00 to Jan-20 @ 18:00
BECMG 2007/2010 10010KT
Wind Visibility Clouds
100° at 10 knots 10,000+ meters
  • Scattered at 3,500' AGL
TAF NWWM 191700Z 1918/2018 09010KT 9999 SCT035 BECMG 1922/2001 14020KT BECMG 2007/2010 10010KT
Issued Jan-19 @ 17:00 UTC
(18 hours ago)
Valid From Jan-19 @ 18:00 UTC
(17 hours ago)
Valid To Jan-20 @ 18:00 UTC
(in 7 hours)
Jan-19 @ 18:00 - Jan-19 @ 22:00
Wind Visibility
90° at 10 knots 10,000+ meters
Clouds
  • Scattered at 3,500' AGL
Jan-19 @ 22:00 - Jan-20 @ 07:00
Wind Visibility
140° at 20 knots 10,000+ meters
Clouds
  • Scattered at 3,500' AGL
Becoming Jan-20 @ 07:00 - Jan-20 @ 18:00
Wind Visibility
100° at 10 knots 10,000+ meters
Clouds
  • Scattered at 3,500' AGL